Etusivu
METAR-TAF:

METAR-TAF

Lentoasemat :

Ushuaia, Argentiina

Leveyspiiri: 54-48S, Pituuspiiri: 068-19W, korkeus merenpinnasta: 16 m

Tämänhetkinen sää

Tämä raportti tehtiin 23 minuuttia sitten, kello 08.00 UTC
Tuuli 12 kn lännestä
Lämpötila 9°C
Kosteus 76%
Ilmanpaine 1004 hPa
Näkyvyys 10 km tai enemmän
Pilvistä 4800 ft:n korkeudessa

METAR: SAWH 170800Z 26012KT 9999 OVC048 09/05 Q1004

Aika: 05:23 (08:23 UTC)

Sääennuste

Tämä raportti tehtiin 3 tuntia ja 23 minuuttia sitten, kello 05.00 UTC
Ennuste voimassa 17. päivästä klo 06 UTC - 18. päivään klo 06 UTC
Tuuli 5 kn luoteesta
Näkyvyys 10 km tai enemmän
Hajonneita pilviä 4000 ft:n korkeudessa
Tulossa
17. päivästä klo 22 UTC - 17. päivään klo 24 UTC
Näkyvyys: 8000 m
Hajonneita pilviä 2000 ft:n korkeudessa
Pilvistä 5000 ft:n korkeudessa
heikkoa sadetta,

TAF: SAWH 170500Z 1706/1806 32005KT 9999 BKN040 TX11/1719Z TN05/1710Z BECMG 1722/1724 8000 -RA BKN020 OVC050

Säähavainnot ja -ennusteet yli 4000 lentoasemalta (METAR- ja TAF-raportit).

Käytössä olevat sääasemat on merkitty karttaan keltaisilla ja punaisilla pisteillä.

Aseta hiiri pisteen päälle nähdäksesi sääaseman nimen.

Klikkaa sitten nähdäksesi säähavainnot ja -ennusteet.

Kartan vaihtaminen: klikkaa mustalla rastilla varustettuja vihreitä pisteitä, niin voit zoomata sisään; viivalla varustettua vihreää pistettä, niin voit zoomata ulos tai vihreitä nuolia, niin pääset viereisille kartoille.


METAR-TAF: